sensor_id;sensor_type;location;lat;lon;timestamp;P1;durP1;ratioP1;P2;durP2;ratioP2
55170;SDS011;41060;47.510;8.680;2023-04-25T00:01:17;3.58;;;1.67;;
55170;SDS011;41060;47.510;8.680;2023-04-25T00:03:44;2.55;;;1.52;;
55170;SDS011;41060;47.510;8.680;2023-04-25T00:06:15;2.22;;;1.50;;
55170;SDS011;41060;47.510;8.680;2023-04-25T00:08:44;5.35;;;1.77;;
55170;SDS011;41060;47.510;8.680;2023-04-25T00:11:10;6.00;;;1.70;;
55170;SDS011;41060;47.510;8.680;2023-04-25T00:13:39;3.05;;;1.23;;
55170;SDS011;41060;47.510;8.680;2023-04-25T00:16:06;5.45;;;1.58;;
55170;SDS011;41060;47.510;8.680;2023-04-25T00:18:33;1.83;;;1.67;;
55170;SDS011;41060;47.510;8.680;2023-04-25T00:21:00;6.70;;;1.70;;
55170;SDS011;41060;47.510;8.680;2023-04-25T00:23:27;3.38;;;1.55;;
55170;SDS011;41060;47.510;8.680;2023-04-25T00:25:55;2.38;;;1.60;;
55170;SDS011;41060;47.510;8.680;2023-04-25T00:28:22;5.20;;;1.30;;
55170;SDS011;41060;47.510;8.680;2023-04-25T00:30:49;6.13;;;1.92;;
55170;SDS011;41060;47.510;8.680;2023-04-25T00:33:16;2.70;;;1.70;;
55170;SDS011;41060;47.510;8.680;2023-04-25T00:35:43;1.77;;;1.40;;
55170;SDS011;41060;47.510;8.680;2023-04-25T00:38:09;2.60;;;1.65;;
55170;SDS011;41060;47.510;8.680;2023-04-25T00:40:36;4.05;;;1.60;;
55170;SDS011;41060;47.510;8.680;2023-04-25T00:43:05;2.78;;;1.27;;
55170;SDS011;41060;47.510;8.680;2023-04-25T00:45:31;3.22;;;1.20;;
55170;SDS011;41060;47.510;8.680;2023-04-25T00:48:02;2.47;;;1.67;;
55170;SDS011;41060;47.510;8.680;2023-04-25T00:50:31;6.05;;;1.27;;
55170;SDS011;41060;47.510;8.680;2023-04-25T00:52:59;3.65;;;1.42;;
55170;SDS011;41060;47.510;8.680;2023-04-25T00:55:26;4.70;;;1.38;;
55170;SDS011;41060;47.510;8.680;2023-04-25T00:57:54;3.58;;;1.42;;
55170;SDS011;41060;47.510;8.680;2023-04-25T01:00:22;2.38;;;1.48;;
55170;SDS011;41060;47.510;8.680;2023-04-25T01:02:48;2.20;;;1.10;;
55170;SDS011;41060;47.510;8.680;2023-04-25T01:05:16;3.72;;;2.67;;
55170;SDS011;41060;47.510;8.680;2023-04-25T01:07:44;2.85;;;1.70;;
55170;SDS011;41060;47.510;8.680;2023-04-25T01:10:10;2.15;;;1.65;;
55170;SDS011;41060;47.510;8.680;2023-04-25T01:12:37;2.92;;;1.30;;
55170;SDS011;41060;47.510;8.680;2023-04-25T01:15:04;1.95;;;1.50;;
55170;SDS011;41060;47.510;8.680;2023-04-25T01:17:33;5.28;;;1.60;;
55170;SDS011;41060;47.510;8.680;2023-04-25T01:20:02;2.53;;;1.33;;
55170;SDS011;41060;47.510;8.680;2023-04-25T01:22:31;3.40;;;1.30;;
55170;SDS011;41060;47.510;8.680;2023-04-25T01:24:57;5.22;;;1.63;;
55170;SDS011;41060;47.510;8.680;2023-04-25T01:27:25;1.67;;;1.40;;
55170;SDS011;41060;47.510;8.680;2023-04-25T01:29:53;4.03;;;1.50;;
55170;SDS011;41060;47.510;8.680;2023-04-25T01:32:22;5.40;;;1.83;;
55170;SDS011;41060;47.510;8.680;2023-04-25T01:34:53;2.35;;;1.63;;
55170;SDS011;41060;47.510;8.680;2023-04-25T01:37:19;4.22;;;2.55;;
55170;SDS011;41060;47.510;8.680;2023-04-25T01:39:47;3.30;;;2.00;;
55170;SDS011;41060;47.510;8.680;2023-04-25T01:42:15;1.70;;;1.10;;
55170;SDS011;41060;47.510;8.680;2023-04-25T01:44:42;2.55;;;1.60;;
55170;SDS011;41060;47.510;8.680;2023-04-25T01:47:09;4.97;;;1.50;;
55170;SDS011;41060;47.510;8.680;2023-04-25T01:49:36;2.80;;;1.27;;
55170;SDS011;41060;47.510;8.680;2023-04-25T01:52:02;3.75;;;1.55;;
55170;SDS011;41060;47.510;8.680;2023-04-25T01:54:29;3.03;;;1.60;;
55170;SDS011;41060;47.510;8.680;2023-04-25T01:56:58;2.40;;;1.60;;
55170;SDS011;41060;47.510;8.680;2023-04-25T01:59:25;4.07;;;1.30;;
55170;SDS011;41060;47.510;8.680;2023-04-25T02:01:51;2.63;;;1.17;;
55170;SDS011;41060;47.510;8.680;2023-04-25T02:04:18;3.15;;;1.30;;
55170;SDS011;41060;47.510;8.680;2023-04-25T02:06:44;2.10;;;1.17;;
55170;SDS011;41060;47.510;8.680;2023-04-25T02:09:11;2.28;;;1.30;;
55170;SDS011;41060;47.510;8.680;2023-04-25T02:11:38;6.90;;;1.98;;
55170;SDS011;41060;47.510;8.680;2023-04-25T02:14:06;2.15;;;1.13;;
55170;SDS011;41060;47.510;8.680;2023-04-25T02:16:34;3.80;;;1.08;;
55170;SDS011;41060;47.510;8.680;2023-04-25T02:19:02;1.35;;;0.80;;
55170;SDS011;41060;47.510;8.680;2023-04-25T02:21:29;6.85;;;1.33;;
55170;SDS011;41060;47.510;8.680;2023-04-25T02:23:55;3.38;;;1.70;;
55170;SDS011;41060;47.510;8.680;2023-04-25T02:26:23;2.97;;;1.65;;
55170;SDS011;41060;47.510;8.680;2023-04-25T02:28:49;2.83;;;1.05;;
55170;SDS011;41060;47.510;8.680;2023-04-25T02:31:18;1.52;;;0.98;;
55170;SDS011;41060;47.510;8.680;2023-04-25T02:33:45;2.85;;;1.27;;
55170;SDS011;41060;47.510;8.680;2023-04-25T02:36:11;1.85;;;1.15;;
55170;SDS011;41060;47.510;8.680;2023-04-25T02:38:39;2.00;;;1.33;;
55170;SDS011;41060;47.510;8.680;2023-04-25T02:41:06;1.83;;;1.25;;
55170;SDS011;41060;47.510;8.680;2023-04-25T02:43:32;2.38;;;1.30;;
55170;SDS011;41060;47.510;8.680;2023-04-25T02:45:59;1.77;;;1.10;;
55170;SDS011;41060;47.510;8.680;2023-04-25T02:48:27;2.97;;;1.02;;
55170;SDS011;41060;47.510;8.680;2023-04-25T02:50:54;5.88;;;1.30;;
55170;SDS011;41060;47.510;8.680;2023-04-25T02:53:20;2.78;;;1.13;;
55170;SDS011;41060;47.510;8.680;2023-04-25T02:55:48;2.97;;;1.05;;
55170;SDS011;41060;47.510;8.680;2023-04-25T02:58:14;2.80;;;1.17;;
55170;SDS011;41060;47.510;8.680;2023-04-25T03:00:41;3.28;;;1.02;;
55170;SDS011;41060;47.510;8.680;2023-04-25T03:03:11;1.77;;;1.30;;
55170;SDS011;41060;47.510;8.680;2023-04-25T03:05:38;1.38;;;0.90;;
55170;SDS011;41060;47.510;8.680;2023-04-25T03:08:05;3.28;;;1.20;;
55170;SDS011;41060;47.510;8.680;2023-04-25T03:10:32;2.95;;;1.30;;
55170;SDS011;41060;47.510;8.680;2023-04-25T03:12:59;4.07;;;1.27;;
55170;SDS011;41060;47.510;8.680;2023-04-25T03:15:27;2.35;;;1.20;;
55170;SDS011;41060;47.510;8.680;2023-04-25T03:17:54;4.50;;;1.27;;
55170;SDS011;41060;47.510;8.680;2023-04-25T03:20:20;5.22;;;1.40;;
55170;SDS011;41060;47.510;8.680;2023-04-25T03:22:48;3.00;;;0.68;;
55170;SDS011;41060;47.510;8.680;2023-04-25T03:25:16;1.60;;;0.93;;
55170;SDS011;41060;47.510;8.680;2023-04-25T03:27:42;2.05;;;1.13;;
55170;SDS011;41060;47.510;8.680;2023-04-25T03:30:09;2.85;;;1.30;;
55170;SDS011;41060;47.510;8.680;2023-04-25T03:32:36;1.45;;;1.00;;
55170;SDS011;41060;47.510;8.680;2023-04-25T03:35:03;2.90;;;1.52;;
55170;SDS011;41060;47.510;8.680;2023-04-25T03:37:30;1.50;;;0.73;;
55170;SDS011;41060;47.510;8.680;2023-04-25T03:39:59;0.77;;;0.77;;
55170;SDS011;41060;47.510;8.680;2023-04-25T03:42:25;1.65;;;1.17;;
55170;SDS011;41060;47.510;8.680;2023-04-25T03:44:52;2.45;;;1.40;;
55170;SDS011;41060;47.510;8.680;2023-04-25T03:47:19;2.53;;;1.27;;
55170;SDS011;41060;47.510;8.680;2023-04-25T03:49:45;3.80;;;1.50;;
55170;SDS011;41060;47.510;8.680;2023-04-25T03:52:12;2.08;;;1.10;;
55170;SDS011;41060;47.510;8.680;2023-04-25T03:54:39;1.40;;;0.90;;
55170;SDS011;41060;47.510;8.680;2023-04-25T03:57:07;3.00;;;1.20;;
55170;SDS011;41060;47.510;8.680;2023-04-25T03:59:33;1.27;;;0.95;;
55170;SDS011;41060;47.510;8.680;2023-04-25T04:02:00;1.73;;;1.15;;
55170;SDS011;41060;47.510;8.680;2023-04-25T04:04:27;2.05;;;0.80;;
55170;SDS011;41060;47.510;8.680;2023-04-25T04:06:53;1.80;;;0.90;;
55170;SDS011;41060;47.510;8.680;2023-04-25T04:09:21;2.40;;;1.23;;
55170;SDS011;41060;47.510;8.680;2023-04-25T04:11:47;2.47;;;1.30;;
55170;SDS011;41060;47.510;8.680;2023-04-25T04:14:15;4.50;;;1.15;;
55170;SDS011;41060;47.510;8.680;2023-04-25T04:16:42;7.20;;;1.45;;
55170;SDS011;41060;47.510;8.680;2023-04-25T04:19:08;3.83;;;1.50;;
55170;SDS011;41060;47.510;8.680;2023-04-25T04:21:35;1.55;;;1.10;;
55170;SDS011;41060;47.510;8.680;2023-04-25T04:24:02;4.13;;;1.35;;
55170;SDS011;41060;47.510;8.680;2023-04-25T04:26:31;2.80;;;1.40;;
55170;SDS011;41060;47.510;8.680;2023-04-25T04:28:59;2.05;;;1.33;;
55170;SDS011;41060;47.510;8.680;2023-04-25T04:31:28;1.98;;;1.40;;
55170;SDS011;41060;47.510;8.680;2023-04-25T04:33:55;2.90;;;1.67;;
55170;SDS011;41060;47.510;8.680;2023-04-25T04:36:21;1.48;;;1.15;;
55170;SDS011;41060;47.510;8.680;2023-04-25T04:38:49;1.40;;;1.05;;
55170;SDS011;41060;47.510;8.680;2023-04-25T04:41:19;1.95;;;1.52;;
55170;SDS011;41060;47.510;8.680;2023-04-25T04:43:45;4.20;;;1.80;;
55170;SDS011;41060;47.510;8.680;2023-04-25T04:46:14;3.20;;;1.70;;
55170;SDS011;41060;47.510;8.680;2023-04-25T04:48:42;2.58;;;1.17;;
55170;SDS011;41060;47.510;8.680;2023-04-25T04:51:09;3.20;;;1.73;;
55170;SDS011;41060;47.510;8.680;2023-04-25T04:53:36;2.42;;;1.40;;
55170;SDS011;41060;47.510;8.680;2023-04-25T04:56:03;2.00;;;1.40;;
55170;SDS011;41060;47.510;8.680;2023-04-25T04:58:30;2.65;;;1.55;;
55170;SDS011;41060;47.510;8.680;2023-04-25T05:00:57;2.80;;;1.38;;
55170;SDS011;41060;47.510;8.680;2023-04-25T05:03:23;2.50;;;1.38;;
55170;SDS011;41060;47.510;8.680;2023-04-25T05:05:51;2.33;;;1.27;;
55170;SDS011;41060;47.510;8.680;2023-04-25T05:08:18;3.08;;;1.48;;
55170;SDS011;41060;47.510;8.680;2023-04-25T05:10:45;2.70;;;1.63;;
55170;SDS011;41060;47.510;8.680;2023-04-25T05:13:11;2.22;;;1.38;;
55170;SDS011;41060;47.510;8.680;2023-04-25T05:15:38;3.38;;;1.25;;
55170;SDS011;41060;47.510;8.680;2023-04-25T05:18:05;2.78;;;1.60;;
55170;SDS011;41060;47.510;8.680;2023-04-25T05:20:31;4.47;;;1.15;;
55170;SDS011;41060;47.510;8.680;2023-04-25T05:23:00;1.35;;;0.98;;
55170;SDS011;41060;47.510;8.680;2023-04-25T05:25:26;3.30;;;1.50;;
55170;SDS011;41060;47.510;8.680;2023-04-25T05:27:53;2.10;;;1.50;;
55170;SDS011;41060;47.510;8.680;2023-04-25T05:30:20;3.05;;;1.73;;
55170;SDS011;41060;47.510;8.680;2023-04-25T05:32:47;5.78;;;2.25;;
55170;SDS011;41060;47.510;8.680;2023-04-25T05:35:13;3.55;;;2.13;;
55170;SDS011;41060;47.510;8.680;2023-04-25T05:37:40;2.92;;;1.73;;
55170;SDS011;41060;47.510;8.680;2023-04-25T05:40:09;2.05;;;1.20;;
55170;SDS011;41060;47.510;8.680;2023-04-25T05:42:36;3.15;;;1.13;;
55170;SDS011;41060;47.510;8.680;2023-04-25T05:45:03;3.28;;;1.90;;
55170;SDS011;41060;47.510;8.680;2023-04-25T05:47:30;9.10;;;6.50;;
55170;SDS011;41060;47.510;8.680;2023-04-25T05:49:57;5.00;;;4.53;;
55170;SDS011;41060;47.510;8.680;2023-04-25T05:52:24;6.82;;;3.80;;
55170;SDS011;41060;47.510;8.680;2023-04-25T05:54:51;3.08;;;1.95;;
55170;SDS011;41060;47.510;8.680;2023-04-25T05:57:22;5.65;;;2.25;;
55170;SDS011;41060;47.510;8.680;2023-04-25T05:59:51;2.83;;;2.10;;
55170;SDS011;41060;47.510;8.680;2023-04-25T06:02:20;8.80;;;2.03;;
55170;SDS011;41060;47.510;8.680;2023-04-25T06:04:47;4.75;;;2.08;;
55170;SDS011;41060;47.510;8.680;2023-04-25T06:07:19;2.78;;;1.60;;
55170;SDS011;41060;47.510;8.680;2023-04-25T06:09:45;1.75;;;1.30;;
55170;SDS011;41060;47.510;8.680;2023-04-25T06:12:12;4.13;;;2.88;;
55170;SDS011;41060;47.510;8.680;2023-04-25T06:14:42;4.03;;;1.98;;
55170;SDS011;41060;47.510;8.680;2023-04-25T06:17:09;9.50;;;1.95;;
55170;SDS011;41060;47.510;8.680;2023-04-25T06:19:35;3.78;;;1.80;;
55170;SDS011;41060;47.510;8.680;2023-04-25T06:22:06;3.03;;;1.92;;
55170;SDS011;41060;47.510;8.680;2023-04-25T06:24:33;2.28;;;1.40;;
55170;SDS011;41060;47.510;8.680;2023-04-25T06:27:00;1.80;;;1.30;;
55170;SDS011;41060;47.510;8.680;2023-04-25T06:29:27;2.08;;;0.93;;
55170;SDS011;41060;47.510;8.680;2023-04-25T06:31:55;1.85;;;1.00;;
55170;SDS011;41060;47.510;8.680;2023-04-25T06:34:22;1.23;;;0.95;;
55170;SDS011;41060;47.510;8.680;2023-04-25T06:36:49;3.17;;;1.15;;
55170;SDS011;41060;47.510;8.680;2023-04-25T06:39:16;2.45;;;1.00;;
55170;SDS011;41060;47.510;8.680;2023-04-25T06:41:42;1.17;;;1.05;;
55170;SDS011;41060;47.510;8.680;2023-04-25T06:44:09;2.33;;;0.85;;
55170;SDS011;41060;47.510;8.680;2023-04-25T06:46:36;1.83;;;1.25;;
55170;SDS011;41060;47.510;8.680;2023-04-25T06:49:04;0.98;;;0.73;;
55170;SDS011;41060;47.510;8.680;2023-04-25T06:51:31;3.63;;;1.05;;
55170;SDS011;41060;47.510;8.680;2023-04-25T06:53:57;0.85;;;0.63;;
55170;SDS011;41060;47.510;8.680;2023-04-25T06:56:24;2.30;;;0.98;;
55170;SDS011;41060;47.510;8.680;2023-04-25T06:58:52;1.83;;;1.08;;
55170;SDS011;41060;47.510;8.680;2023-04-25T07:01:18;1.45;;;1.10;;
55170;SDS011;41060;47.510;8.680;2023-04-25T07:03:45;1.80;;;1.00;;
55170;SDS011;41060;47.510;8.680;2023-04-25T07:06:13;2.22;;;1.10;;
55170;SDS011;41060;47.510;8.680;2023-04-25T07:08:40;2.33;;;1.77;;
55170;SDS011;41060;47.510;8.680;2023-04-25T07:11:06;4.82;;;1.85;;
55170;SDS011;41060;47.510;8.680;2023-04-25T07:13:33;2.55;;;1.98;;
55170;SDS011;41060;47.510;8.680;2023-04-25T07:16:00;1.73;;;1.35;;
55170;SDS011;41060;47.510;8.680;2023-04-25T07:18:26;1.48;;;1.10;;
55170;SDS011;41060;47.510;8.680;2023-04-25T07:20:54;1.98;;;1.75;;
55170;SDS011;41060;47.510;8.680;2023-04-25T07:23:22;1.83;;;0.98;;
55170;SDS011;41060;47.510;8.680;2023-04-25T07:25:48;5.13;;;1.58;;
55170;SDS011;41060;47.510;8.680;2023-04-25T07:28:18;3.78;;;1.80;;
55170;SDS011;41060;47.510;8.680;2023-04-25T07:30:45;2.40;;;1.60;;
55170;SDS011;41060;47.510;8.680;2023-04-25T07:33:11;2.00;;;1.30;;
55170;SDS011;41060;47.510;8.680;2023-04-25T07:35:38;2.33;;;1.10;;
55170;SDS011;41060;47.510;8.680;2023-04-25T07:38:05;1.77;;;1.13;;
55170;SDS011;41060;47.510;8.680;2023-04-25T07:40:34;2.35;;;1.00;;
55170;SDS011;41060;47.510;8.680;2023-04-25T07:43:01;1.58;;;0.80;;
55170;SDS011;41060;47.510;8.680;2023-04-25T07:45:28;2.80;;;1.20;;
55170;SDS011;41060;47.510;8.680;2023-04-25T07:47:54;2.03;;;1.05;;
55170;SDS011;41060;47.510;8.680;2023-04-25T07:50:21;1.60;;;1.00;;
55170;SDS011;41060;47.510;8.680;2023-04-25T07:52:48;2.45;;;1.55;;
55170;SDS011;41060;47.510;8.680;2023-04-25T07:55:14;3.35;;;1.55;;
55170;SDS011;41060;47.510;8.680;2023-04-25T07:57:43;1.13;;;0.77;;
55170;SDS011;41060;47.510;8.680;2023-04-25T08:00:10;1.92;;;0.90;;
55170;SDS011;41060;47.510;8.680;2023-04-25T08:02:37;1.23;;;0.82;;
55170;SDS011;41060;47.510;8.680;2023-04-25T08:05:05;2.95;;;1.10;;
55170;SDS011;41060;47.510;8.680;2023-04-25T08:07:33;3.15;;;0.90;;
55170;SDS011;41060;47.510;8.680;2023-04-25T08:10:00;1.08;;;0.70;;
55170;SDS011;41060;47.510;8.680;2023-04-25T08:12:27;0.80;;;0.52;;
55170;SDS011;41060;47.510;8.680;2023-04-25T08:14:55;1.25;;;0.70;;
55170;SDS011;41060;47.510;8.680;2023-04-25T08:17:21;2.17;;;1.15;;
55170;SDS011;41060;47.510;8.680;2023-04-25T08:19:48;2.42;;;0.80;;
55170;SDS011;41060;47.510;8.680;2023-04-25T08:22:15;0.70;;;0.70;;
55170;SDS011;41060;47.510;8.680;2023-04-25T08:24:41;1.67;;;0.57;;
55170;SDS011;41060;47.510;8.680;2023-04-25T08:27:08;0.63;;;0.60;;
55170;SDS011;41060;47.510;8.680;2023-04-25T08:29:36;1.20;;;0.77;;
55170;SDS011;41060;47.510;8.680;2023-04-25T08:32:04;0.90;;;0.77;;
55170;SDS011;41060;47.510;8.680;2023-04-25T08:34:31;1.77;;;0.98;;
55170;SDS011;41060;47.510;8.680;2023-04-25T08:36:57;1.13;;;0.80;;
55170;SDS011;41060;47.510;8.680;2023-04-25T08:39:24;0.75;;;0.50;;
55170;SDS011;41060;47.510;8.680;2023-04-25T08:41:51;3.83;;;0.90;;
55170;SDS011;41060;47.510;8.680;2023-04-25T08:44:18;0.65;;;0.50;;
55170;SDS011;41060;47.510;8.680;2023-04-25T08:46:46;1.40;;;0.68;;
55170;SDS011;41060;47.510;8.680;2023-04-25T08:49:18;0.82;;;0.55;;
55170;SDS011;41060;47.510;8.680;2023-04-25T08:51:46;0.70;;;0.50;;
55170;SDS011;41060;47.510;8.680;2023-04-25T08:54:15;4.97;;;0.85;;
55170;SDS011;41060;47.510;8.680;2023-04-25T08:56:43;2.15;;;1.45;;
55170;SDS011;41060;47.510;8.680;2023-04-25T08:59:11;1.33;;;1.10;;
55170;SDS011;41060;47.510;8.680;2023-04-25T09:01:38;2.85;;;0.70;;
55170;SDS011;41060;47.510;8.680;2023-04-25T09:04:05;3.20;;;1.13;;
55170;SDS011;41060;47.510;8.680;2023-04-25T09:06:33;0.30;;;0.25;;
55170;SDS011;41060;47.510;8.680;2023-04-25T09:09:02;1.73;;;1.52;;
55170;SDS011;41060;47.510;8.680;2023-04-25T09:11:30;0.98;;;0.60;;
55170;SDS011;41060;47.510;8.680;2023-04-25T09:14:09;1.27;;;0.93;;
55170;SDS011;41060;47.510;8.680;2023-04-25T09:19:30;3.60;;;0.98;;
55170;SDS011;41060;47.510;8.680;2023-04-25T09:22:00;1.00;;;0.85;;
55170;SDS011;41060;47.510;8.680;2023-04-25T09:24:34;1.20;;;0.70;;
55170;SDS011;41060;47.510;8.680;2023-04-25T09:27:03;0.68;;;0.43;;
55170;SDS011;41060;47.510;8.680;2023-04-25T09:29:31;1.95;;;0.65;;
55170;SDS011;41060;47.510;8.680;2023-04-25T09:32:15;0.57;;;0.52;;
55170;SDS011;41060;47.510;8.680;2023-04-25T09:34:45;0.70;;;0.50;;
55170;SDS011;41060;47.510;8.680;2023-04-25T09:37:18;0.43;;;0.30;;
55170;SDS011;41060;47.510;8.680;2023-04-25T09:39:50;1.92;;;0.52;;
55170;SDS011;41060;47.510;8.680;2023-04-25T09:42:17;1.05;;;0.60;;
55170;SDS011;41060;47.510;8.680;2023-04-25T09:44:48;1.75;;;0.52;;
55170;SDS011;41060;47.510;8.680;2023-04-25T09:47:15;0.65;;;0.55;;
55170;SDS011;41060;47.510;8.680;2023-04-25T09:49:43;0.40;;;0.40;;
55170;SDS011;41060;47.510;8.680;2023-04-25T09:52:13;0.40;;;0.40;;
55170;SDS011;41060;47.510;8.680;2023-04-25T09:54:42;1.17;;;0.40;;
55170;SDS011;41060;47.510;8.680;2023-04-25T09:57:10;0.80;;;0.40;;
55170;SDS011;41060;47.510;8.680;2023-04-25T09:59:39;0.80;;;0.65;;
55170;SDS011;41060;47.510;8.680;2023-04-25T10:02:10;0.22;;;0.22;;
55170;SDS011;41060;47.510;8.680;2023-04-25T10:04:38;0.60;;;0.38;;
55170;SDS011;41060;47.510;8.680;2023-04-25T10:07:05;1.13;;;0.50;;
55170;SDS011;41060;47.510;8.680;2023-04-25T10:09:33;1.02;;;0.55;;
55170;SDS011;41060;47.510;8.680;2023-04-25T10:12:06;0.35;;;0.35;;
55170;SDS011;41060;47.510;8.680;2023-04-25T10:14:34;0.98;;;0.65;;
55170;SDS011;41060;47.510;8.680;2023-04-25T10:17:01;0.40;;;0.40;;
55170;SDS011;41060;47.510;8.680;2023-04-25T10:19:28;1.10;;;0.32;;
55170;SDS011;41060;47.510;8.680;2023-04-25T10:21:56;0.77;;;0.60;;
55170;SDS011;41060;47.510;8.680;2023-04-25T10:24:30;0.40;;;0.40;;
55170;SDS011;41060;47.510;8.680;2023-04-25T10:26:57;0.50;;;0.47;;
55170;SDS011;41060;47.510;8.680;2023-04-25T10:29:25;0.93;;;0.50;;
55170;SDS011;41060;47.510;8.680;2023-04-25T10:31:53;1.42;;;0.40;;
55170;SDS011;41060;47.510;8.680;2023-04-25T10:34:19;0.47;;;0.38;;
55170;SDS011;41060;47.510;8.680;2023-04-25T10:36:51;1.83;;;0.47;;
55170;SDS011;41060;47.510;8.680;2023-04-25T10:39:26;1.73;;;0.60;;
55170;SDS011;41060;47.510;8.680;2023-04-25T10:41:55;0.63;;;0.50;;
55170;SDS011;41060;47.510;8.680;2023-04-25T10:44:27;0.30;;;0.30;;
55170;SDS011;41060;47.510;8.680;2023-04-25T10:46:54;0.63;;;0.35;;
55170;SDS011;41060;47.510;8.680;2023-04-25T10:49:29;0.60;;;0.60;;
55170;SDS011;41060;47.510;8.680;2023-04-25T10:52:10;0.30;;;0.30;;
55170;SDS011;41060;47.510;8.680;2023-04-25T10:54:42;0.65;;;0.40;;
55170;SDS011;41060;47.510;8.680;2023-04-25T10:57:26;0.47;;;0.32;;
55170;SDS011;41060;47.510;8.680;2023-04-25T11:00:08;0.20;;;0.20;;
55170;SDS011;41060;47.510;8.680;2023-04-25T11:02:40;1.92;;;0.57;;
55170;SDS011;41060;47.510;8.680;2023-04-25T11:07:49;0.43;;;0.30;;
55170;SDS011;41060;47.510;8.680;2023-04-25T11:10:17;0.50;;;0.32;;
55170;SDS011;41060;47.510;8.680;2023-04-25T11:12:45;0.77;;;0.30;;
55170;SDS011;41060;47.510;8.680;2023-04-25T11:15:13;0.30;;;0.25;;
55170;SDS011;41060;47.510;8.680;2023-04-25T11:17:41;0.93;;;0.40;;
55170;SDS011;41060;47.510;8.680;2023-04-25T11:20:08;1.73;;;0.47;;
55170;SDS011;41060;47.510;8.680;2023-04-25T11:22:37;0.68;;;0.50;;
55170;SDS011;41060;47.510;8.680;2023-04-25T11:25:05;0.70;;;0.40;;
55170;SDS011;41060;47.510;8.680;2023-04-25T11:27:32;1.02;;;0.60;;
55170;SDS011;41060;47.510;8.680;2023-04-25T11:30:09;0.90;;;0.40;;
55170;SDS011;41060;47.510;8.680;2023-04-25T11:32:40;0.85;;;0.43;;
55170;SDS011;41060;47.510;8.680;2023-04-25T11:35:07;0.43;;;0.40;;
55170;SDS011;41060;47.510;8.680;2023-04-25T11:37:34;0.93;;;0.52;;
55170;SDS011;41060;47.510;8.680;2023-04-25T11:40:02;1.20;;;0.52;;
55170;SDS011;41060;47.510;8.680;2023-04-25T11:42:31;0.60;;;0.52;;
55170;SDS011;41060;47.510;8.680;2023-04-25T11:44:58;2.00;;;0.55;;
55170;SDS011;41060;47.510;8.680;2023-04-25T11:47:28;0.80;;;0.47;;
55170;SDS011;41060;47.510;8.680;2023-04-25T11:49:58;7.05;;;0.50;;
55170;SDS011;41060;47.510;8.680;2023-04-25T11:52:34;0.30;;;0.25;;
55170;SDS011;41060;47.510;8.680;2023-04-25T11:55:06;0.55;;;0.40;;
55170;SDS011;41060;47.510;8.680;2023-04-25T11:57:34;0.60;;;0.50;;
55170;SDS011;41060;47.510;8.680;2023-04-25T12:00:06;0.80;;;0.40;;
55170;SDS011;41060;47.510;8.680;2023-04-25T12:02:40;0.90;;;0.40;;
55170;SDS011;41060;47.510;8.680;2023-04-25T12:05:10;1.55;;;0.63;;
55170;SDS011;41060;47.510;8.680;2023-04-25T12:07:37;0.50;;;0.40;;
55170;SDS011;41060;47.510;8.680;2023-04-25T12:10:05;0.52;;;0.50;;
55170;SDS011;41060;47.510;8.680;2023-04-25T12:12:33;0.90;;;0.40;;
55170;SDS011;41060;47.510;8.680;2023-04-25T12:15:10;2.05;;;0.68;;
55170;SDS011;41060;47.510;8.680;2023-04-25T12:17:41;0.60;;;0.50;;
55170;SDS011;41060;47.510;8.680;2023-04-25T12:20:13;1.20;;;0.68;;
55170;SDS011;41060;47.510;8.680;2023-04-25T12:22:41;0.45;;;0.43;;
55170;SDS011;41060;47.510;8.680;2023-04-25T12:25:10;1.00;;;0.70;;
55170;SDS011;41060;47.510;8.680;2023-04-25T12:27:38;0.40;;;0.40;;
55170;SDS011;41060;47.510;8.680;2023-04-25T12:30:07;0.75;;;0.30;;
55170;SDS011;41060;47.510;8.680;2023-04-25T12:32:35;0.45;;;0.35;;
55170;SDS011;41060;47.510;8.680;2023-04-25T12:35:02;0.75;;;0.60;;
55170;SDS011;41060;47.510;8.680;2023-04-25T12:37:31;2.05;;;0.60;;
55170;SDS011;41060;47.510;8.680;2023-04-25T12:39:58;0.70;;;0.38;;
55170;SDS011;41060;47.510;8.680;2023-04-25T12:42:24;0.80;;;0.60;;
55170;SDS011;41060;47.510;8.680;2023-04-25T12:44:51;0.63;;;0.50;;
55170;SDS011;41060;47.510;8.680;2023-04-25T12:47:18;1.02;;;0.70;;
55170;SDS011;41060;47.510;8.680;2023-04-25T12:49:44;0.45;;;0.30;;
55170;SDS011;41060;47.510;8.680;2023-04-25T12:52:12;0.73;;;0.45;;
55170;SDS011;41060;47.510;8.680;2023-04-25T12:54:39;0.63;;;0.50;;
55170;SDS011;41060;47.510;8.680;2023-04-25T12:57:06;0.40;;;0.40;;
55170;SDS011;41060;47.510;8.680;2023-04-25T12:59:33;0.77;;;0.40;;
55170;SDS011;41060;47.510;8.680;2023-04-25T13:02:00;0.50;;;0.50;;
55170;SDS011;41060;47.510;8.680;2023-04-25T13:04:26;2.85;;;1.55;;
55170;SDS011;41060;47.510;8.680;2023-04-25T13:06:53;0.75;;;0.60;;
55170;SDS011;41060;47.510;8.680;2023-04-25T13:09:20;0.47;;;0.38;;
55170;SDS011;41060;47.510;8.680;2023-04-25T13:11:48;1.48;;;0.50;;
55170;SDS011;41060;47.510;8.680;2023-04-25T13:14:15;0.75;;;0.50;;
55170;SDS011;41060;47.510;8.680;2023-04-25T13:16:41;1.08;;;0.50;;
55170;SDS011;41060;47.510;8.680;2023-04-25T13:19:08;0.38;;;0.28;;
55170;SDS011;41060;47.510;8.680;2023-04-25T13:21:37;2.00;;;0.65;;
55170;SDS011;41060;47.510;8.680;2023-04-25T13:24:03;1.45;;;0.63;;
55170;SDS011;41060;47.510;8.680;2023-04-25T13:26:30;1.27;;;0.52;;
55170;SDS011;41060;47.510;8.680;2023-04-25T13:28:59;0.90;;;0.50;;
55170;SDS011;41060;47.510;8.680;2023-04-25T13:31:27;0.60;;;0.40;;
55170;SDS011;41060;47.510;8.680;2023-04-25T13:33:55;1.73;;;0.63;;
55170;SDS011;41060;47.510;8.680;2023-04-25T13:36:25;2.58;;;0.85;;
55170;SDS011;41060;47.510;8.680;2023-04-25T13:38:52;0.70;;;0.60;;
55170;SDS011;41060;47.510;8.680;2023-04-25T13:41:19;1.35;;;0.38;;
55170;SDS011;41060;47.510;8.680;2023-04-25T13:43:46;1.08;;;0.55;;
55170;SDS011;41060;47.510;8.680;2023-04-25T13:46:15;0.68;;;0.45;;
55170;SDS011;41060;47.510;8.680;2023-04-25T13:48:41;1.83;;;0.85;;
55170;SDS011;41060;47.510;8.680;2023-04-25T13:51:13;0.40;;;0.30;;
55170;SDS011;41060;47.510;8.680;2023-04-25T13:53:41;1.27;;;0.60;;
55170;SDS011;41060;47.510;8.680;2023-04-25T13:56:08;2.17;;;0.60;;
55170;SDS011;41060;47.510;8.680;2023-04-25T13:58:36;0.38;;;0.30;;
55170;SDS011;41060;47.510;8.680;2023-04-25T14:01:03;3.33;;;0.60;;
55170;SDS011;41060;47.510;8.680;2023-04-25T14:03:32;2.17;;;0.57;;
55170;SDS011;41060;47.510;8.680;2023-04-25T14:06:00;3.45;;;0.57;;
55170;SDS011;41060;47.510;8.680;2023-04-25T14:08:26;0.43;;;0.35;;
55170;SDS011;41060;47.510;8.680;2023-04-25T14:10:53;0.55;;;0.50;;
55170;SDS011;41060;47.510;8.680;2023-04-25T14:13:20;0.60;;;0.50;;
55170;SDS011;41060;47.510;8.680;2023-04-25T14:15:48;1.08;;;0.70;;
55170;SDS011;41060;47.510;8.680;2023-04-25T14:18:15;0.30;;;0.30;;
55170;SDS011;41060;47.510;8.680;2023-04-25T14:20:43;1.58;;;0.93;;
55170;SDS011;41060;47.510;8.680;2023-04-25T14:23:10;0.65;;;0.55;;
55170;SDS011;41060;47.510;8.680;2023-04-25T14:25:37;0.77;;;0.60;;
55170;SDS011;41060;47.510;8.680;2023-04-25T14:28:04;1.83;;;0.40;;
55170;SDS011;41060;47.510;8.680;2023-04-25T14:30:31;0.52;;;0.40;;
55170;SDS011;41060;47.510;8.680;2023-04-25T14:32:58;1.05;;;0.75;;
55170;SDS011;41060;47.510;8.680;2023-04-25T14:35:25;1.92;;;0.68;;
55170;SDS011;41060;47.510;8.680;2023-04-25T14:37:53;3.35;;;0.60;;
55170;SDS011;41060;47.510;8.680;2023-04-25T14:40:20;5.55;;;1.40;;
55170;SDS011;41060;47.510;8.680;2023-04-25T14:42:48;0.80;;;0.50;;
55170;SDS011;41060;47.510;8.680;2023-04-25T14:45:16;0.40;;;0.30;;
55170;SDS011;41060;47.510;8.680;2023-04-25T14:47:42;2.03;;;1.02;;
55170;SDS011;41060;47.510;8.680;2023-04-25T14:50:10;0.68;;;0.50;;
55170;SDS011;41060;47.510;8.680;2023-04-25T14:52:36;0.93;;;0.60;;
55170;SDS011;41060;47.510;8.680;2023-04-25T14:55:04;0.80;;;0.43;;
55170;SDS011;41060;47.510;8.680;2023-04-25T14:57:33;1.23;;;0.70;;